KNLC/NLC METAR and TAF weather

Enter ICAO airport designator
Station Type Date Time Source
KNLC METAR 2019/08/25 19:56 UTC NOAA

KNLC 251956Z AUTO VRB04KT 10SM CLR 36/13 A2994 RMK AO2 SLP135 T03560128


Station Type Date Time Source
KNLC Decoded METAR 2019/08/25 19:56 UTC NOAA

Station name not available
Aug 25, 2019 - 03:56 PM EDT / 2019.08.25 1956 UTC
Wind: Variable at 5 MPH (4 KT):0
Visibility: 10 mile(s):0
Sky conditions: clear
Temperature: 96.1 F (35.6 C)
Heat index: 94.1 F (34.5 C):1
Dew Point: 55.0 F (12.8 C)
Relative Humidity: 25%
Pressure (altimeter): 29.94 in. Hg (1013 hPa)
ob: KNLC 251956Z AUTO VRB04KT 10SM CLR 36/13 A2994 RMK AO2 SLP135 T03560128
cycle: 20

Station Type Date Time Source
KNLC TAF 2019/08/25 15:12 UTC NOAA

TAF KNLC 2515/2615 32008KT 9999 SKC QNH2984INS
FM261100 VRB06KT 9999 SKC QNH2986INS T38/2522Z T22/2612Z FS30129

Example: see airport list